createdAt,value
2017-11-14T00:00:02.227Z,101166.59
2017-11-14T00:02:29.765Z,101170.31
2017-11-14T00:04:57.214Z,101170.77
2017-11-14T00:07:24.776Z,101166.48
2017-11-14T00:09:52.240Z,101171.95
2017-11-14T00:12:19.707Z,101170.39
2017-11-14T00:14:47.150Z,101170.41
2017-11-14T00:17:14.648Z,101171.86
2017-11-14T00:19:42.096Z,101173.61
2017-11-14T00:22:09.624Z,101183.16
2017-11-14T00:24:37.140Z,101172.70
2017-11-14T00:27:04.596Z,101169.36
2017-11-14T00:29:32.080Z,101176.30
2017-11-14T00:31:59.556Z,101173.06
2017-11-14T00:34:27.023Z,101167.41
2017-11-14T00:36:54.561Z,101167.59
2017-11-14T00:39:22.030Z,101171.09
2017-11-14T00:41:49.588Z,101175.56
2017-11-14T00:44:17.051Z,101176.19
2017-11-14T00:46:44.496Z,101177.38
2017-11-14T00:49:12.054Z,101175.18
2017-11-14T00:51:39.611Z,101177.84
2017-11-14T00:54:07.079Z,101169.35
2017-11-14T00:56:34.534Z,101175.39
2017-11-14T00:59:02.007Z,101174.44
2017-11-14T01:01:29.447Z,101178.98
2017-11-14T01:03:56.883Z,101180.88
2017-11-14T01:06:24.438Z,101179.06
2017-11-14T01:08:51.880Z,101180.13
2017-11-14T01:11:19.350Z,101184.68
2017-11-14T01:13:46.806Z,101180.31
2017-11-14T01:16:14.285Z,101181.82
2017-11-14T01:18:41.749Z,101180.11
2017-11-14T01:21:09.245Z,101183.53
2017-11-14T01:23:36.711Z,101189.45
2017-11-14T01:26:04.214Z,101192.08
2017-11-14T01:28:31.668Z,101192.42
2017-11-14T01:30:59.139Z,101194.76
2017-11-14T01:33:26.606Z,101192.65
2017-11-14T01:35:54.141Z,101192.28
2017-11-14T01:38:21.605Z,101198.84
2017-11-14T01:40:49.065Z,101194.14
2017-11-14T01:43:16.546Z,101199.97
2017-11-14T01:45:44.071Z,101202.26
2017-11-14T01:48:11.558Z,101205.06
2017-11-14T01:50:39.027Z,101207.05
2017-11-14T01:53:06.505Z,101211.59
2017-11-14T01:55:33.962Z,101209.33
2017-11-14T01:58:01.453Z,101204.06
2017-11-14T02:00:40.717Z,101208.86
2017-11-14T02:03:08.270Z,101208.53
2017-11-14T02:05:35.734Z,101210.05
2017-11-14T02:08:03.219Z,101209.75
2017-11-14T02:10:30.682Z,101213.30
2017-11-14T02:12:58.168Z,101218.31
2017-11-14T02:15:25.649Z,101224.84
2017-11-14T02:17:53.139Z,101222.75
2017-11-14T02:20:20.605Z,101226.34
2017-11-14T02:22:48.066Z,101214.28
2017-11-14T02:25:15.554Z,101222.25
2017-11-14T02:27:43.046Z,101219.03
2017-11-14T02:30:10.526Z,101225.48
2017-11-14T02:32:38.032Z,101225.56
2017-11-14T02:35:05.519Z,101225.91
2017-11-14T02:37:32.982Z,101231.14
2017-11-14T02:40:00.471Z,101232.72
2017-11-14T02:42:27.935Z,101233.14
2017-11-14T02:44:55.523Z,101241.95
2017-11-14T02:47:22.987Z,101239.30
2017-11-14T02:49:50.474Z,101237.30
2017-11-14T02:52:17.936Z,101231.44
2017-11-14T02:54:45.430Z,101238.05
2017-11-14T02:57:12.917Z,101228.58
2017-11-14T02:59:40.423Z,101231.47
2017-11-14T03:02:07.888Z,101238.02
2017-11-14T03:04:35.379Z,101233.53
2017-11-14T03:07:02.859Z,101238.06
2017-11-14T03:09:30.395Z,101233.94
2017-11-14T03:11:57.863Z,101234.05
2017-11-14T03:14:25.344Z,101240.00
2017-11-14T03:16:52.826Z,101245.52
2017-11-14T03:19:20.294Z,101245.60
2017-11-14T03:21:47.787Z,101239.14
2017-11-14T03:24:15.266Z,101243.97
2017-11-14T03:26:42.794Z,101240.34
2017-11-14T03:29:10.263Z,101248.55
2017-11-14T03:31:37.751Z,101245.91
2017-11-14T03:34:05.210Z,101250.35
2017-11-14T03:36:32.708Z,101250.02
2017-11-14T03:39:00.165Z,101254.35
2017-11-14T03:41:27.699Z,101257.56
2017-11-14T03:43:55.171Z,101258.66
2017-11-14T03:46:22.631Z,101261.92
2017-11-14T03:48:50.133Z,101265.56
2017-11-14T03:51:17.594Z,101263.80
2017-11-14T03:53:45.076Z,101264.91
2017-11-14T03:56:12.543Z,101262.52
2017-11-14T03:58:40.038Z,101264.23
2017-11-14T04:01:07.523Z,101274.91
2017-11-14T04:03:35.002Z,101280.42
2017-11-14T04:06:02.460Z,101286.50
2017-11-14T04:08:29.949Z,101284.42
2017-11-14T04:10:57.414Z,101288.07
2017-11-14T04:13:24.890Z,101290.67
2017-11-14T04:15:52.353Z,101296.29
2017-11-14T04:18:19.858Z,101295.90
2017-11-14T04:20:47.322Z,101294.58
2017-11-14T04:23:14.784Z,101302.72
2017-11-14T04:25:42.268Z,101295.38
2017-11-14T04:28:09.737Z,101299.93
2017-11-14T04:30:37.230Z,101300.94
2017-11-14T04:33:04.691Z,101298.17
2017-11-14T04:35:32.172Z,101299.17
2017-11-14T04:37:59.637Z,101307.67
2017-11-14T04:40:27.215Z,101301.03
2017-11-14T04:42:54.678Z,101305.32
2017-11-14T04:45:22.162Z,101313.62
2017-11-14T04:47:49.654Z,101315.13
2017-11-14T04:50:17.142Z,101316.52
2017-11-14T04:52:44.692Z,101313.97
2017-11-14T04:55:12.174Z,101321.66
2017-11-14T04:57:39.661Z,101319.39
2017-11-14T05:00:07.186Z,101321.76
2017-11-14T05:02:34.641Z,101331.22
2017-11-14T05:05:02.098Z,101325.93
2017-11-14T05:07:29.587Z,101338.37
2017-11-14T05:09:57.086Z,101340.06
2017-11-14T05:12:24.562Z,101341.80
2017-11-14T05:14:52.019Z,101341.47
2017-11-14T05:17:19.527Z,101342.69
2017-11-14T05:19:47.023Z,101352.20
2017-11-14T05:22:14.507Z,101353.03
2017-11-14T05:24:41.966Z,101350.23
2017-11-14T05:27:09.469Z,101356.52
2017-11-14T05:29:36.925Z,101349.13
2017-11-14T05:32:04.406Z,101352.30
2017-11-14T05:34:31.866Z,101357.09
2017-11-14T05:36:59.378Z,101361.14
2017-11-14T05:39:26.844Z,101364.72
2017-11-14T05:41:54.363Z,101371.91
2017-11-14T05:44:21.866Z,101374.52
2017-11-14T05:46:49.395Z,101376.27
2017-11-14T05:49:16.873Z,101386.19
2017-11-14T05:51:44.430Z,101374.58
2017-11-14T05:54:11.910Z,101379.41
2017-11-14T05:56:39.394Z,101379.22
2017-11-14T05:59:06.871Z,101372.91
2017-11-14T06:01:34.346Z,101378.21
2017-11-14T06:04:01.839Z,101376.98
2017-11-14T06:06:29.415Z,101382.85
2017-11-14T06:08:56.905Z,101386.70
2017-11-14T06:11:24.378Z,101395.30
2017-11-14T06:13:51.859Z,101395.36
2017-11-14T06:16:19.338Z,101390.88
2017-11-14T06:18:46.827Z,101388.69
2017-11-14T06:21:14.363Z,101387.39
2017-11-14T06:23:41.886Z,101389.78
2017-11-14T06:26:09.370Z,101388.08
2017-11-14T06:28:36.838Z,101386.84
2017-11-14T06:31:04.337Z,101387.06
2017-11-14T06:33:31.828Z,101395.63
2017-11-14T06:35:59.324Z,101385.24
2017-11-14T06:38:26.783Z,101392.03
2017-11-14T06:40:54.267Z,101395.42
2017-11-14T06:43:21.770Z,101393.44
2017-11-14T06:45:49.333Z,101399.33
2017-11-14T06:48:16.794Z,101401.67
2017-11-14T06:50:44.297Z,101403.63
2017-11-14T06:53:11.803Z,101408.87
2017-11-14T06:55:39.317Z,101403.19
2017-11-14T06:58:06.807Z,101410.06
2017-11-14T07:00:34.273Z,101410.93
2017-11-14T07:03:01.759Z,101418.43
2017-11-14T07:05:29.291Z,101425.90
2017-11-14T07:07:56.789Z,101424.97
2017-11-14T07:10:24.249Z,101436.27
2017-11-14T07:12:51.738Z,101427.41
2017-11-14T07:15:19.216Z,101428.77
2017-11-14T07:17:46.744Z,101429.66
2017-11-14T07:20:14.204Z,101428.73
2017-11-14T07:22:41.735Z,101432.63
2017-11-14T07:25:09.176Z,101429.64
2017-11-14T07:27:36.686Z,101436.97
2017-11-14T07:30:04.151Z,101436.98
2017-11-14T07:32:31.655Z,101441.53
2017-11-14T07:34:59.126Z,101443.37
2017-11-14T07:37:26.611Z,101449.88
2017-11-14T07:39:54.195Z,101441.81
2017-11-14T07:42:21.654Z,101442.94
2017-11-14T07:44:49.140Z,101446.81
2017-11-14T07:47:16.610Z,101438.82
2017-11-14T07:49:44.118Z,101443.63
2017-11-14T07:52:11.578Z,101447.13
2017-11-14T07:54:39.054Z,101450.67
2017-11-14T07:57:06.601Z,101450.75
2017-11-14T07:59:34.131Z,101462.30
2017-11-14T08:02:01.628Z,101458.44
2017-11-14T08:04:29.119Z,101459.06
2017-11-14T08:06:56.605Z,101458.77
2017-11-14T08:09:24.182Z,101459.87
2017-11-14T08:11:52.432Z,101453.85
2017-11-14T08:14:20.212Z,101454.50
2017-11-14T08:16:47.786Z,101450.47
2017-11-14T08:19:15.245Z,101462.98
2017-11-14T08:21:42.800Z,101461.38
2017-11-14T08:24:10.262Z,101461.55
2017-11-14T08:26:37.750Z,101460.37
2017-11-14T08:29:05.224Z,101467.39
2017-11-14T08:31:32.710Z,101472.94
2017-11-14T08:34:00.235Z,101467.31
2017-11-14T08:36:27.713Z,101463.58
2017-11-14T08:38:55.175Z,101466.19
2017-11-14T08:41:23.332Z,101468.28
2017-11-14T08:43:50.827Z,101475.09
2017-11-14T08:46:18.313Z,101470.84
2017-11-14T08:48:45.798Z,101471.06
2017-11-14T08:51:13.460Z,101480.58
2017-11-14T08:53:40.925Z,101488.09
2017-11-14T08:56:08.521Z,101481.34
2017-11-14T08:58:35.978Z,101478.52
2017-11-14T09:01:03.452Z,101481.37
2017-11-14T09:03:30.913Z,101491.60
2017-11-14T09:05:58.380Z,101481.65
2017-11-14T09:08:25.872Z,101484.45
2017-11-14T09:10:53.354Z,101492.45
2017-11-14T09:13:20.845Z,101495.88
2017-11-14T09:15:48.313Z,101496.40
2017-11-14T09:18:15.834Z,101505.38
2017-11-14T09:20:43.313Z,101500.73
2017-11-14T09:23:10.799Z,101505.34
2017-11-14T09:25:38.261Z,101502.79
2017-11-14T09:28:05.749Z,101501.83
2017-11-14T09:30:33.319Z,101501.41
2017-11-14T09:33:00.813Z,101503.77
2017-11-14T09:35:28.304Z,101497.84
2017-11-14T09:37:55.771Z,101495.41
2017-11-14T09:40:23.254Z,101505.70
2017-11-14T09:42:50.721Z,101496.27
2017-11-14T09:45:18.218Z,101500.06
2017-11-14T09:47:45.679Z,101504.37
2017-11-14T09:50:13.186Z,101498.49
2017-11-14T09:52:40.677Z,101499.83
2017-11-14T09:55:08.174Z,101500.27
2017-11-14T09:57:35.651Z,101499.83
2017-11-14T10:00:03.144Z,101496.52
2017-11-14T10:02:30.607Z,101493.77
2017-11-14T10:04:58.162Z,101495.41
2017-11-14T10:07:25.646Z,101501.20
2017-11-14T10:09:53.126Z,101495.96
2017-11-14T10:12:20.586Z,101497.80
2017-11-14T10:14:48.073Z,101504.31
2017-11-14T10:17:15.549Z,101495.55
2017-11-14T10:19:43.167Z,101497.89
2017-11-14T10:22:10.638Z,101494.16
2017-11-14T10:24:38.102Z,101483.16
2017-11-14T10:27:05.619Z,101477.99
2017-11-14T10:29:33.091Z,101477.63
2017-11-14T10:32:00.585Z,101478.09
2017-11-14T10:34:28.063Z,101477.19
2017-11-14T10:36:55.548Z,101463.75
2017-11-14T10:39:23.118Z,101466.84
2017-11-14T10:41:50.601Z,101464.64
2017-11-14T10:44:18.059Z,101466.59
2017-11-14T10:46:45.545Z,101458.28
2017-11-14T10:49:13.011Z,101452.19
2017-11-14T10:51:40.518Z,101451.27
2017-11-14T10:54:07.983Z,101449.46
2017-11-14T10:56:35.487Z,101447.27
2017-11-14T10:59:02.987Z,101442.01
2017-11-14T11:01:30.534Z,101446.02
2017-11-14T11:03:57.997Z,101440.75
2017-11-14T11:06:25.483Z,101435.45
2017-11-14T11:08:52.973Z,101428.78
2017-11-14T11:11:20.450Z,101428.84
2017-11-14T11:13:47.945Z,101422.22
2017-11-14T11:16:15.458Z,101421.36
2017-11-14T11:18:42.971Z,101425.75
2017-11-14T11:21:10.508Z,101419.15
2017-11-14T11:23:38.019Z,101416.94
2017-11-14T11:26:05.494Z,101414.28
2017-11-14T11:28:32.974Z,101414.74
2017-11-14T11:31:00.476Z,101417.38
2017-11-14T11:33:27.978Z,101412.52
2017-11-14T11:35:55.443Z,101415.19
2017-11-14T11:38:22.906Z,101412.47
2017-11-14T11:40:50.382Z,101404.09
2017-11-14T11:43:17.838Z,101409.84
2017-11-14T11:45:45.371Z,101414.12
2017-11-14T11:48:12.829Z,101407.09
2017-11-14T11:50:40.306Z,101407.59
2017-11-14T11:53:07.766Z,101409.31
2017-11-14T11:55:35.246Z,101408.45
2017-11-14T11:58:02.724Z,101407.16
2017-11-14T12:00:30.232Z,101408.47
2017-11-14T12:02:57.690Z,101406.65
2017-11-14T12:05:25.226Z,101399.87
2017-11-14T12:07:52.763Z,101404.36
2017-11-14T12:10:20.214Z,101397.20
2017-11-14T12:12:47.799Z,101403.92
2017-11-14T12:15:15.363Z,101405.20
2017-11-14T12:17:42.915Z,101403.83
2017-11-14T12:20:10.478Z,101401.16
2017-11-14T12:22:37.959Z,101400.20
2017-11-14T12:25:05.423Z,101394.88
2017-11-14T12:27:32.924Z,101384.16
2017-11-14T12:30:00.378Z,101380.27
2017-11-14T12:32:27.851Z,101379.84
2017-11-14T12:34:55.323Z,101369.74
2017-11-14T12:37:22.837Z,101370.60
2017-11-14T12:39:50.298Z,101363.40
2017-11-14T12:42:17.747Z,101362.06
2017-11-14T12:44:45.239Z,101357.96
2017-11-14T12:47:12.714Z,101352.85
2017-11-14T12:49:40.202Z,101347.96
2017-11-14T12:52:07.698Z,101352.50
2017-11-14T12:54:35.287Z,101351.45
2017-11-14T12:57:02.748Z,101349.30
2017-11-14T12:59:30.223Z,101347.75
2017-11-14T13:01:57.692Z,101347.28
2017-11-14T13:04:25.180Z,101344.73
2017-11-14T13:06:52.649Z,101342.95
2017-11-14T13:09:20.126Z,101349.14
2017-11-14T13:11:47.674Z,101349.69
2017-11-14T13:14:15.192Z,101350.41
2017-11-14T13:16:42.683Z,101351.27
2017-11-14T13:19:10.142Z,101348.62
2017-11-14T13:21:37.965Z,101353.84
2017-11-14T13:24:05.467Z,101353.09
2017-11-14T13:26:33.031Z,101345.91
2017-11-14T13:29:00.504Z,101348.14
2017-11-14T13:31:27.989Z,101343.62
2017-11-14T13:33:55.450Z,101348.13
2017-11-14T13:36:22.934Z,101346.26
2017-11-14T13:38:50.394Z,101343.08
2017-11-14T13:41:17.906Z,101344.22
2017-11-14T13:43:45.443Z,101339.08
2017-11-14T13:46:12.959Z,101339.42
2017-11-14T13:48:40.430Z,101340.63
2017-11-14T13:51:08.003Z,101337.12
2017-11-14T13:53:35.532Z,101341.16
2017-11-14T13:56:03.019Z,101341.33
2017-11-14T13:58:30.582Z,101345.60
2017-11-14T14:00:58.047Z,101342.20
2017-11-14T14:03:25.542Z,101338.08
2017-11-14T14:05:52.997Z,101341.69
2017-11-14T14:08:20.491Z,101343.88
2017-11-14T14:10:47.967Z,101343.88
2017-11-14T14:13:15.531Z,101339.02
2017-11-14T14:15:43.004Z,101331.83
2017-11-14T14:18:10.487Z,101335.56
2017-11-14T14:20:37.951Z,101335.20
2017-11-14T14:23:05.434Z,101335.69
2017-11-14T14:25:33.010Z,101339.48
2017-11-14T14:28:00.479Z,101338.76
2017-11-14T14:30:27.970Z,101337.17
2017-11-14T14:32:55.427Z,101334.98
2017-11-14T14:35:22.911Z,101339.47
2017-11-14T14:37:50.375Z,101336.35
2017-11-14T14:40:17.989Z,101336.48
2017-11-14T14:42:45.450Z,101337.92
2017-11-14T14:45:12.958Z,101345.43
2017-11-14T14:47:40.426Z,101334.65
2017-11-14T14:50:07.906Z,101337.88
2017-11-14T14:52:35.375Z,101339.39
2017-11-14T14:55:02.851Z,101342.05
2017-11-14T14:57:30.310Z,101346.02
2017-11-14T14:59:57.850Z,101348.84
2017-11-14T15:02:25.322Z,101351.99
2017-11-14T15:04:52.802Z,101346.63
2017-11-14T15:07:20.282Z,101348.07
2017-11-14T15:09:47.839Z,101347.22
2017-11-14T15:12:15.394Z,101350.86
2017-11-14T15:14:42.855Z,101352.10
2017-11-14T15:17:10.347Z,101353.94
2017-11-14T15:19:37.808Z,101362.84
2017-11-14T15:22:05.291Z,101363.30
2017-11-14T15:24:32.764Z,101366.41
2017-11-14T15:27:00.238Z,101369.95
2017-11-14T15:29:27.704Z,101366.91
2017-11-14T15:31:55.178Z,101374.01
2017-11-14T15:34:22.842Z,101372.75
2017-11-14T15:36:50.375Z,101375.42
2017-11-14T15:39:17.834Z,101384.28
2017-11-14T15:41:45.328Z,101382.95
2017-11-14T15:44:12.795Z,101384.73
2017-11-14T15:46:40.296Z,101387.75
2017-11-14T15:49:07.771Z,101388.64
2017-11-14T15:51:35.312Z,101389.48
2017-11-14T15:54:02.829Z,101387.67
2017-11-14T15:56:30.290Z,101382.33
2017-11-14T15:58:57.776Z,101390.14
2017-11-14T16:01:25.256Z,101392.32
2017-11-14T16:03:52.903Z,101396.69
2017-11-14T16:06:20.361Z,101393.60
2017-11-14T16:08:47.842Z,101395.80
2017-11-14T16:11:15.314Z,101394.75
2017-11-14T16:13:42.802Z,101400.88
2017-11-14T16:16:10.305Z,101400.80
2017-11-14T16:18:37.808Z,101402.54
2017-11-14T16:21:05.274Z,101397.27
2017-11-14T16:23:32.730Z,101401.92
2017-11-14T16:26:00.220Z,101400.61
2017-11-14T16:28:27.689Z,101401.01
2017-11-14T16:30:55.180Z,101406.37
2017-11-14T16:33:22.643Z,101409.78
2017-11-14T16:35:50.125Z,101419.56
2017-11-14T16:38:17.610Z,101419.85
2017-11-14T16:40:45.160Z,101420.20
2017-11-14T16:43:12.623Z,101422.70
2017-11-14T16:45:40.180Z,101418.96
2017-11-14T16:48:07.730Z,101419.49
2017-11-14T16:50:35.296Z,101424.41
2017-11-14T16:53:02.754Z,101429.98
2017-11-14T16:55:30.221Z,101427.92
2017-11-14T16:57:57.706Z,101424.50
2017-11-14T17:00:25.175Z,101432.39
2017-11-14T17:02:52.668Z,101439.86
2017-11-14T17:05:20.140Z,101438.19
2017-11-14T17:07:47.686Z,101440.28
2017-11-14T17:10:15.154Z,101436.31
2017-11-14T17:12:42.654Z,101436.87
2017-11-14T17:15:10.119Z,101443.01
2017-11-14T17:17:37.621Z,101442.90
2017-11-14T17:20:05.082Z,101442.33
2017-11-14T17:22:33.403Z,101444.95
2017-11-14T17:25:00.866Z,101439.43
2017-11-14T17:27:28.370Z,101436.48
2017-11-14T17:29:55.826Z,101444.03
2017-11-14T17:32:23.291Z,101442.47
2017-11-14T17:34:50.782Z,101449.44
2017-11-14T17:37:18.246Z,101451.37
2017-11-14T17:39:45.754Z,101451.13
2017-11-14T17:42:13.293Z,101457.47
2017-11-14T17:44:40.775Z,101459.27
2017-11-14T17:47:08.235Z,101458.82
2017-11-14T17:49:35.736Z,101463.63
2017-11-14T17:52:03.228Z,101467.36
2017-11-14T17:54:30.790Z,101473.78
2017-11-14T17:56:58.262Z,101472.56
2017-11-14T17:59:25.793Z,101478.65
2017-11-14T18:01:53.238Z,101484.67
2017-11-14T18:04:20.825Z,101484.57
2017-11-14T18:06:48.286Z,101493.94
2017-11-14T18:09:15.795Z,101495.98
2017-11-14T18:11:43.258Z,101493.49
2017-11-14T18:14:10.727Z,101498.53
2017-11-14T18:16:38.217Z,101499.80
2017-11-14T18:19:05.708Z,101495.83
2017-11-14T18:21:33.191Z,101499.95
2017-11-14T18:24:00.661Z,101495.01
2017-11-14T18:26:28.147Z,101500.30
2017-11-14T18:28:55.607Z,101498.58
2017-11-14T18:31:23.085Z,101503.98
2017-11-14T18:33:50.538Z,101496.03
2017-11-14T18:36:18.132Z,101510.31
2017-11-14T18:38:45.599Z,101506.59
2017-11-14T18:41:13.319Z,101509.36
2017-11-14T18:43:40.799Z,101505.19
2017-11-14T18:46:08.303Z,101502.83
2017-11-14T18:48:35.766Z,101509.75
2017-11-14T18:51:03.324Z,101509.04
2017-11-14T18:53:30.822Z,101510.47
2017-11-14T18:55:58.286Z,101503.15
2017-11-14T18:58:25.775Z,101512.98
2017-11-14T19:00:53.230Z,101518.65
2017-11-14T19:03:20.712Z,101517.20
2017-11-14T19:05:48.202Z,101515.30
2017-11-14T19:08:15.696Z,101508.37
2017-11-14T19:10:43.162Z,101510.55
2017-11-14T19:13:10.743Z,101511.28
2017-11-14T19:15:38.288Z,101506.88
2017-11-14T19:18:05.754Z,101517.36
2017-11-14T19:20:33.230Z,101518.44
2017-11-14T19:23:00.690Z,101517.25
2017-11-14T19:25:28.219Z,101522.32
2017-11-14T19:27:55.683Z,101516.98
2017-11-14T19:30:23.163Z,101511.86
2017-11-14T19:32:50.637Z,101508.37
2017-11-14T19:35:18.139Z,101509.00
2017-11-14T19:37:45.594Z,101506.39
2017-11-14T19:40:13.078Z,101512.21
2017-11-14T19:42:40.538Z,101515.79
2017-11-14T19:45:07.997Z,101519.05
2017-11-14T19:47:35.604Z,101514.80
2017-11-14T19:50:03.093Z,101513.84
2017-11-14T19:52:30.586Z,101517.36
2017-11-14T19:54:58.050Z,101505.13
2017-11-14T19:57:25.578Z,101515.86
2017-11-14T19:59:53.133Z,101518.05
2017-11-14T20:02:20.611Z,101522.03
2017-11-14T20:04:48.139Z,101519.08
2017-11-14T20:07:15.655Z,101519.41
2017-11-14T20:09:43.121Z,101525.94
2017-11-14T20:12:10.719Z,101528.66
2017-11-14T20:14:38.208Z,101522.86
2017-11-14T20:17:05.670Z,101518.10
2017-11-14T20:19:33.166Z,101514.15
2017-11-14T20:22:00.638Z,101518.86
2017-11-14T20:24:28.123Z,101519.29
2017-11-14T20:26:55.582Z,101517.92
2017-11-14T20:29:23.062Z,101524.37
2017-11-14T20:31:50.526Z,101522.61
2017-11-14T20:34:18.007Z,101521.97
2017-11-14T20:36:45.523Z,101527.45
2017-11-14T20:39:13.003Z,101525.30
2017-11-14T20:41:40.462Z,101529.73
2017-11-14T20:44:07.959Z,101534.04
2017-11-14T20:46:35.426Z,101532.34
2017-11-14T20:49:02.933Z,101536.19
2017-11-14T20:51:30.391Z,101534.99
2017-11-14T20:53:57.862Z,101535.58
2017-11-14T20:56:25.340Z,101542.47
2017-11-14T20:58:52.831Z,101535.14
2017-11-14T21:01:20.330Z,101537.16
2017-11-14T21:03:47.789Z,101540.37
2017-11-14T21:06:15.290Z,101533.90
2017-11-14T21:08:42.758Z,101543.25
2017-11-14T21:11:10.243Z,101539.05
2017-11-14T21:13:37.703Z,101531.19
2017-11-14T21:16:05.186Z,101533.43
2017-11-14T21:18:32.655Z,101541.19
2017-11-14T21:21:00.147Z,101540.86
2017-11-14T21:23:27.612Z,101541.92
2017-11-14T21:25:55.106Z,101546.09
2017-11-14T21:28:22.603Z,101544.19
2017-11-14T21:30:50.066Z,101532.58
2017-11-14T21:33:17.549Z,101529.91
2017-11-14T21:35:45.022Z,101532.25
2017-11-14T21:38:12.503Z,101535.36
2017-11-14T21:40:40.000Z,101540.69
2017-11-14T21:43:07.482Z,101531.47
2017-11-14T21:45:34.977Z,101536.34
2017-11-14T21:48:02.476Z,101533.71
2017-11-14T21:50:29.952Z,101532.98
2017-11-14T21:52:57.450Z,101532.25
2017-11-14T21:55:25.577Z,101536.97
2017-11-14T21:57:53.088Z,101538.58
2017-11-14T22:00:20.568Z,101544.44
2017-11-14T22:02:48.100Z,101543.81
2017-11-14T22:05:15.609Z,101540.21
2017-11-14T22:07:43.118Z,101542.55
2017-11-14T22:10:10.605Z,101540.60
2017-11-14T22:12:38.070Z,101544.53
2017-11-14T22:15:05.585Z,101540.16
2017-11-14T22:17:33.130Z,101541.56
2017-11-14T22:20:00.620Z,101532.77
2017-11-14T22:22:28.107Z,101535.73
2017-11-14T22:24:55.762Z,101533.55
2017-11-14T22:27:23.237Z,101536.67
2017-11-14T22:29:50.719Z,101538.53
2017-11-14T22:32:18.182Z,101537.42
2017-11-14T22:34:45.689Z,101540.25
2017-11-14T22:37:13.167Z,101538.70
2017-11-14T22:39:40.667Z,101543.16
2017-11-14T22:42:08.155Z,101536.25
2017-11-14T22:44:35.619Z,101543.69
2017-11-14T22:47:03.103Z,101533.84
2017-11-14T22:49:30.586Z,101535.67
2017-11-14T22:51:58.071Z,101539.28
2017-11-14T22:54:25.545Z,101530.27
2017-11-14T22:56:53.042Z,101529.28
2017-11-14T22:59:20.517Z,101534.94
2017-11-14T23:01:48.001Z,101532.15
2017-11-14T23:04:15.457Z,101537.56
2017-11-14T23:06:42.958Z,101543.30
2017-11-14T23:09:10.421Z,101541.53
2017-11-14T23:11:38.003Z,101539.09
2017-11-14T23:14:05.470Z,101543.83
2017-11-14T23:16:32.969Z,101542.56
2017-11-14T23:19:00.437Z,101542.60
2017-11-14T23:21:27.924Z,101544.88
2017-11-14T23:23:55.494Z,101548.30
2017-11-14T23:26:22.956Z,101546.88
2017-11-14T23:28:50.506Z,101550.09
2017-11-14T23:31:17.974Z,101541.93
2017-11-14T23:33:45.453Z,101555.20
2017-11-14T23:36:12.922Z,101552.53
2017-11-14T23:38:40.419Z,101546.27
2017-11-14T23:41:07.998Z,101542.91
2017-11-14T23:43:35.488Z,101541.03
2017-11-14T23:46:02.995Z,101541.83
2017-11-14T23:48:30.494Z,101531.70
2017-11-14T23:50:57.963Z,101537.25
2017-11-14T23:53:25.452Z,101539.09
2017-11-14T23:55:52.939Z,101525.67
2017-11-14T23:58:20.401Z,101526.45
